createdAt,value
2023-02-28T00:00:31.709Z,91.1
2023-02-28T00:01:32.458Z,91.1
2023-02-28T00:02:31.703Z,91.29
2023-02-28T00:03:31.736Z,90.91
2023-02-28T00:04:31.565Z,91.39
2023-02-28T00:05:31.517Z,91.86
2023-02-28T00:06:31.514Z,91.48
2023-02-28T00:07:31.464Z,91.48
2023-02-28T00:08:31.416Z,91.1
2023-02-28T00:09:31.367Z,91.39
2023-02-28T00:10:31.325Z,91.2
2023-02-28T00:11:31.957Z,91.1
2023-02-28T00:12:31.281Z,91.58
2023-02-28T00:13:31.224Z,91.77
2023-02-28T00:14:31.187Z,91.86
2023-02-28T00:15:31.135Z,92.05
2023-02-28T00:16:31.151Z,91.58
2023-02-28T00:17:31.067Z,91.58
2023-02-28T00:18:33.805Z,92.43
2023-02-28T00:19:30.989Z,92.33
2023-02-28T00:20:30.957Z,92.24
2023-02-28T00:21:31.630Z,91.86
2023-02-28T00:22:30.895Z,91.86
2023-02-28T00:23:30.852Z,92.24
2023-02-28T00:24:30.798Z,92.24
2023-02-28T00:25:30.769Z,92.52
2023-02-28T00:26:30.725Z,92.43
2023-02-28T00:27:30.711Z,91.96
2023-02-28T00:28:30.662Z,92.71
2023-02-28T00:29:30.612Z,92.71
2023-02-28T00:30:30.669Z,92.71
2023-02-28T00:31:31.114Z,92.9
2023-02-28T00:32:30.486Z,92.71
2023-02-28T00:33:30.462Z,92.9
2023-02-28T00:34:30.436Z,92.43
2023-02-28T00:35:30.438Z,92.71
2023-02-28T00:36:30.439Z,92.8
2023-02-28T00:37:30.294Z,93.18
2023-02-28T00:38:30.282Z,93.09
2023-02-28T00:39:30.220Z,93.28
2023-02-28T00:40:30.175Z,93.28
2023-02-28T00:41:30.827Z,93.32
2023-02-28T00:42:30.104Z,93.42
2023-02-28T00:43:30.072Z,93.32
2023-02-28T00:44:30.018Z,93.47
2023-02-28T00:45:29.984Z,93.42
2023-02-28T00:46:30.112Z,93.23
2023-02-28T00:47:30.059Z,93.51
2023-02-28T00:48:29.867Z,94.08
2023-02-28T00:49:29.854Z,94.08
2023-02-28T00:50:29.842Z,94.18
2023-02-28T00:51:30.545Z,93.99
2023-02-28T00:52:29.873Z,93.89
2023-02-28T00:53:29.727Z,93.99
2023-02-28T00:54:29.667Z,94.18
2023-02-28T00:55:29.617Z,93.99
2023-02-28T00:56:29.719Z,94.08
2023-02-28T00:57:29.529Z,94.65
2023-02-28T00:58:29.489Z,94.37
2023-02-28T00:59:29.451Z,94.27
2023-02-28T01:00:29.403Z,94.27
2023-02-28T01:01:30.289Z,94.74
2023-02-28T01:02:29.331Z,94.56
2023-02-28T01:03:29.294Z,94.56
2023-02-28T01:04:29.488Z,94.74
2023-02-28T01:05:29.223Z,94.56
2023-02-28T01:06:29.201Z,94.84
2023-02-28T01:07:29.139Z,94.56
2023-02-28T01:08:29.099Z,94.27
2023-02-28T01:09:29.062Z,94.74
2023-02-28T01:10:29.049Z,94.27
2023-02-28T01:11:29.742Z,94.56
2023-02-28T01:12:30.887Z,94.56
2023-02-28T01:13:28.767Z,94.65
2023-02-28T01:14:28.880Z,95.31
2023-02-28T01:15:28.929Z,95.31
2023-02-28T01:16:28.803Z,94.74
2023-02-28T01:17:28.781Z,94.65
2023-02-28T01:18:28.743Z,95.12
2023-02-28T01:19:28.674Z,95.5
2023-02-28T01:20:28.641Z,95.4
2023-02-28T01:21:28.933Z,95.68
2023-02-28T01:22:28.587Z,95.87
2023-02-28T01:23:28.515Z,96.06
2023-02-28T01:24:28.490Z,95.87
2023-02-28T01:25:28.500Z,95.87
2023-02-28T01:26:28.427Z,95.59
2023-02-28T01:27:28.367Z,95.59
2023-02-28T01:28:28.336Z,95.87
2023-02-28T01:29:28.297Z,95.68
2023-02-28T01:30:28.250Z,96.06
2023-02-28T01:31:28.828Z,95.87
2023-02-28T01:32:28.283Z,96.06
2023-02-28T01:33:28.130Z,95.97
2023-02-28T01:34:28.093Z,96.54
2023-02-28T01:35:28.065Z,96.63
2023-02-28T01:36:28.019Z,96.25
2023-02-28T01:37:28.134Z,95.97
2023-02-28T01:38:27.971Z,96.54
2023-02-28T01:39:27.915Z,96.25
2023-02-28T01:40:27.861Z,96.35
2023-02-28T01:41:28.341Z,96.54
2023-02-28T01:42:27.819Z,96.73
2023-02-28T01:43:27.783Z,96.63
2023-02-28T01:44:27.718Z,96.54
2023-02-28T01:45:27.662Z,96.91
2023-02-28T01:46:27.718Z,96.35
2023-02-28T01:47:27.598Z,96.73
2023-02-28T01:48:27.551Z,96.35
2023-02-28T01:49:27.510Z,96.82
2023-02-28T01:50:27.468Z,97.01
2023-02-28T01:51:27.882Z,96.82
2023-02-28T01:52:27.387Z,96.91
2023-02-28T01:53:27.365Z,96.73
2023-02-28T01:54:27.351Z,96.44
2023-02-28T01:55:27.288Z,96.73
2023-02-28T01:56:27.235Z,96.73
2023-02-28T01:57:27.210Z,96.73
2023-02-28T01:58:27.181Z,96.73
2023-02-28T01:59:27.115Z,96.73
2023-02-28T02:00:27.080Z,96.91
2023-02-28T02:01:27.382Z,96.91
2023-02-28T02:02:27.118Z,96.63
2023-02-28T02:03:26.960Z,96.82
2023-02-28T02:04:26.926Z,96.82
2023-02-28T02:05:26.901Z,97.67
2023-02-28T02:06:26.853Z,97.1
2023-02-28T02:07:26.807Z,97.2
2023-02-28T02:08:26.997Z,97.2
2023-02-28T02:09:26.733Z,97.1
2023-02-28T02:10:26.713Z,97.01
2023-02-28T02:11:26.848Z,97.48
2023-02-28T02:12:26.604Z,97.48
2023-02-28T02:13:26.585Z,97.29
2023-02-28T02:14:26.569Z,96.91
2023-02-28T02:15:26.504Z,96.91
2023-02-28T02:16:26.578Z,97.58
2023-02-28T02:17:26.424Z,97.01
2023-02-28T02:18:26.388Z,97.1
2023-02-28T02:19:26.339Z,97.58
2023-02-28T02:20:26.297Z,97.58
2023-02-28T02:21:26.310Z,97.1
2023-02-28T02:22:26.224Z,96.91
2023-02-28T02:23:26.180Z,97.39
2023-02-28T02:24:26.139Z,97.01
2023-02-28T02:25:26.100Z,97.2
2023-02-28T02:26:26.082Z,96.82
2023-02-28T02:27:26.031Z,97.48
2023-02-28T02:28:25.990Z,97.29
2023-02-28T02:29:25.954Z,97.29
2023-02-28T02:30:25.929Z,97.1
2023-02-28T02:31:26.015Z,97.48
2023-02-28T02:32:25.994Z,97.2
2023-02-28T02:33:25.795Z,97.77
2023-02-28T02:34:25.747Z,97.67
2023-02-28T02:35:25.868Z,96.91
2023-02-28T02:36:25.686Z,97.01
2023-02-28T02:37:25.644Z,98.05
2023-02-28T02:38:25.591Z,98.14
2023-02-28T02:39:25.558Z,98.14
2023-02-28T02:40:25.514Z,97.39
2023-02-28T02:41:25.489Z,97.29
2023-02-28T02:42:25.469Z,97.67
2023-02-28T02:43:25.187Z,97.67
2023-02-28T02:44:25.371Z,97.96
2023-02-28T02:45:25.193Z,97.67
2023-02-28T02:46:25.430Z,97.86
2023-02-28T02:47:25.270Z,97.77
2023-02-28T02:48:25.202Z,97.86
2023-02-28T02:49:25.162Z,97.48
2023-02-28T02:50:25.123Z,97.2
2023-02-28T02:51:25.114Z,97.67
2023-02-28T02:52:25.057Z,97.86
2023-02-28T02:53:25.044Z,97.96
2023-02-28T02:54:24.977Z,98.14
2023-02-28T02:55:24.927Z,97.96
2023-02-28T02:56:24.895Z,97.29
2023-02-28T02:57:24.849Z,97.67
2023-02-28T02:58:24.851Z,97.86
2023-02-28T02:59:25.133Z,97.86
2023-02-28T03:00:24.747Z,97.48
2023-02-28T03:01:24.890Z,98.14
2023-02-28T03:02:24.691Z,98.05
2023-02-28T03:03:24.642Z,98.05
2023-02-28T03:04:24.581Z,97.86
2023-02-28T03:05:24.555Z,98.05
2023-02-28T03:06:24.512Z,98.05
2023-02-28T03:07:24.525Z,98.47
2023-02-28T03:08:24.440Z,98.52
2023-02-28T03:09:24.381Z,98.57
2023-02-28T03:10:24.352Z,98.57
2023-02-28T03:11:24.314Z,98.47
2023-02-28T03:12:24.278Z,98.38
2023-02-28T03:13:24.246Z,98.99
2023-02-28T03:14:24.220Z,98.71
2023-02-28T03:15:24.150Z,98.85
2023-02-28T03:16:24.296Z,99.04
2023-02-28T03:17:24.069Z,99.04
2023-02-28T03:18:24.068Z,98.52
2023-02-28T03:19:23.991Z,98.94
2023-02-28T03:20:23.962Z,98.66
2023-02-28T03:21:23.909Z,98.85
2023-02-28T03:22:23.878Z,98.94
2023-02-28T03:23:23.849Z,99.6
2023-02-28T03:24:23.809Z,99.7
2023-02-28T03:25:23.905Z,99.13
2023-02-28T03:26:23.727Z,99.22
2023-02-28T03:27:23.692Z,99.41
2023-02-28T03:28:23.654Z,99.32
2023-02-28T03:29:23.601Z,99.51
2023-02-28T03:30:23.588Z,99.88
2023-02-28T03:31:23.618Z,99.7
2023-02-28T03:32:23.597Z,99.51
2023-02-28T03:33:23.459Z,99.79
2023-02-28T03:34:23.430Z,99.51
2023-02-28T03:35:23.422Z,99.6
2023-02-28T03:36:23.354Z,99.88
2023-02-28T03:37:23.427Z,99.99
2023-02-28T03:38:23.246Z,99.99
2023-02-28T03:39:23.209Z,99.99
2023-02-28T03:40:23.193Z,99.99
2023-02-28T03:41:23.132Z,99.99
2023-02-28T03:42:23.090Z,99.99
2023-02-28T03:43:23.045Z,99.99
2023-02-28T03:44:23.032Z,99.99
2023-02-28T03:45:22.985Z,99.99
2023-02-28T03:46:23.030Z,99.99
2023-02-28T03:47:22.906Z,99.99
2023-02-28T03:48:22.856Z,99.99
2023-02-28T03:49:22.818Z,99.99
2023-02-28T03:50:22.804Z,99.99
2023-02-28T03:51:22.760Z,99.99
2023-02-28T03:52:22.693Z,99.99
2023-02-28T03:53:22.675Z,99.99
2023-02-28T03:54:22.628Z,99.99
2023-02-28T03:55:22.587Z,99.99
2023-02-28T03:56:22.564Z,99.99
2023-02-28T03:57:22.504Z,99.99
2023-02-28T03:58:22.456Z,99.99
2023-02-28T03:59:22.421Z,99.99
2023-02-28T04:00:22.418Z,99.99
2023-02-28T04:01:22.455Z,99.99
2023-02-28T04:02:22.327Z,99.99
2023-02-28T04:03:22.271Z,99.99
2023-02-28T04:04:22.322Z,99.99
2023-02-28T04:05:22.287Z,99.99
2023-02-28T04:06:22.222Z,99.99
2023-02-28T04:07:22.126Z,99.99
2023-02-28T04:08:22.060Z,99.99
2023-02-28T04:09:22.026Z,99.99
2023-02-28T04:10:21.987Z,99.99
2023-02-28T04:11:21.962Z,99.99
2023-02-28T04:12:21.899Z,99.99
2023-02-28T04:13:21.867Z,99.99
2023-02-28T04:14:21.833Z,99.99
2023-02-28T04:15:21.789Z,99.99
2023-02-28T04:16:36.278Z,99.99
2023-02-28T04:17:21.721Z,99.99
2023-02-28T04:18:21.694Z,99.99
2023-02-28T04:19:21.631Z,99.99
2023-02-28T04:20:21.593Z,99.99
2023-02-28T04:21:21.559Z,99.99
2023-02-28T04:22:21.540Z,99.99
2023-02-28T04:23:21.471Z,99.99
2023-02-28T04:24:21.431Z,99.99
2023-02-28T04:25:21.159Z,99.99
2023-02-28T04:26:21.351Z,99.99
2023-02-28T04:27:21.315Z,99.99
2023-02-28T04:28:21.275Z,99.99
2023-02-28T04:29:21.234Z,99.99
2023-02-28T04:30:21.198Z,99.99
2023-02-28T04:31:21.251Z,99.99
2023-02-28T04:32:21.364Z,99.99
2023-02-28T04:33:21.077Z,99.99
2023-02-28T04:34:21.056Z,99.99
2023-02-28T04:35:21.007Z,99.99
2023-02-28T04:36:20.956Z,99.99
2023-02-28T04:37:20.914Z,99.99
2023-02-28T04:38:20.905Z,99.99
2023-02-28T04:39:20.837Z,99.99
2023-02-28T04:40:20.799Z,99.99
2023-02-28T04:41:20.752Z,99.99
2023-02-28T04:42:20.717Z,99.99
2023-02-28T04:43:20.677Z,99.99
2023-02-28T04:44:20.639Z,99.99
2023-02-28T04:45:20.597Z,99.99
2023-02-28T04:46:20.558Z,99.99
2023-02-28T04:47:20.516Z,99.99
2023-02-28T04:48:22.276Z,99.99
2023-02-28T04:49:20.441Z,99.99
2023-02-28T04:50:20.432Z,99.99
2023-02-28T04:51:20.354Z,99.99
2023-02-28T04:52:20.316Z,99.99
2023-02-28T04:53:20.282Z,99.99
2023-02-28T04:54:20.262Z,99.99
2023-02-28T04:55:20.195Z,99.99
2023-02-28T04:56:20.167Z,99.99
2023-02-28T04:57:20.117Z,99.99
2023-02-28T04:58:20.075Z,99.99
2023-02-28T04:59:20.059Z,99.99
2023-02-28T05:00:20.031Z,99.99
2023-02-28T05:01:19.974Z,99.99
2023-02-28T05:02:20.001Z,99.99
2023-02-28T05:03:19.881Z,99.99
2023-02-28T05:04:19.877Z,99.99
2023-02-28T05:05:19.806Z,99.99
2023-02-28T05:06:19.788Z,99.99
2023-02-28T05:07:19.718Z,99.99
2023-02-28T05:08:19.681Z,99.99
2023-02-28T05:09:19.637Z,99.99
2023-02-28T05:10:19.624Z,99.99
2023-02-28T05:11:19.569Z,99.99
2023-02-28T05:12:19.530Z,99.99
2023-02-28T05:13:19.475Z,99.99
2023-02-28T05:14:19.437Z,99.99
2023-02-28T05:15:19.395Z,99.99
2023-02-28T05:16:19.593Z,99.99
2023-02-28T05:17:19.321Z,99.99
2023-02-28T05:18:19.332Z,99.99
2023-02-28T05:19:19.251Z,99.99
2023-02-28T05:20:19.206Z,99.99
2023-02-28T05:21:19.178Z,99.99
2023-02-28T05:22:19.147Z,99.99
2023-02-28T05:23:19.074Z,99.99
2023-02-28T05:24:19.043Z,99.99
2023-02-28T05:25:18.998Z,99.99
2023-02-28T05:26:18.993Z,99.99
2023-02-28T05:27:18.914Z,99.99
2023-02-28T05:28:18.884Z,99.99
2023-02-28T05:29:18.847Z,99.99
2023-02-28T05:30:18.802Z,99.99
2023-02-28T05:31:18.882Z,99.99
2023-02-28T05:32:18.787Z,99.99
2023-02-28T05:33:18.686Z,99.99
2023-02-28T05:34:18.643Z,99.99
2023-02-28T05:35:18.603Z,99.99
2023-02-28T05:36:18.578Z,99.99
2023-02-28T05:37:18.523Z,99.99
2023-02-28T05:38:18.531Z,99.99
2023-02-28T05:39:18.449Z,99.99
2023-02-28T05:40:18.415Z,99.99
2023-02-28T05:41:18.360Z,99.99
2023-02-28T05:42:18.343Z,99.99
2023-02-28T05:43:18.291Z,99.99
2023-02-28T05:44:18.249Z,99.99
2023-02-28T05:45:18.331Z,99.99
2023-02-28T05:46:18.164Z,99.99
2023-02-28T05:47:18.122Z,99.99
2023-02-28T05:48:18.081Z,99.99
2023-02-28T05:49:18.054Z,99.99
2023-02-28T05:50:18.005Z,99.99
2023-02-28T05:51:17.987Z,99.99
2023-02-28T05:52:17.924Z,99.99
2023-02-28T05:53:17.885Z,99.99
2023-02-28T05:54:17.885Z,99.99
2023-02-28T05:55:17.815Z,99.99
2023-02-28T05:56:17.774Z,99.99
2023-02-28T05:57:26.503Z,99.99
2023-02-28T05:58:17.713Z,99.99
2023-02-28T05:59:17.659Z,99.99
2023-02-28T06:00:17.609Z,99.99
2023-02-28T06:01:17.566Z,99.99
2023-02-28T06:02:17.668Z,99.99
2023-02-28T06:03:17.583Z,99.99
2023-02-28T06:04:32.998Z,99.99
2023-02-28T06:05:17.420Z,99.99
2023-02-28T06:06:17.369Z,99.99
2023-02-28T06:07:17.330Z,99.99
2023-02-28T06:08:17.288Z,99.99
2023-02-28T06:09:17.263Z,99.99
2023-02-28T06:10:17.255Z,99.99
2023-02-28T06:11:17.170Z,99.99
2023-02-28T06:12:17.134Z,99.99
2023-02-28T06:13:17.103Z,99.99
2023-02-28T06:14:17.090Z,99.99
2023-02-28T06:15:17.021Z,99.99
2023-02-28T06:16:17.032Z,99.99
2023-02-28T06:17:16.932Z,99.99
2023-02-28T06:18:16.903Z,99.99
2023-02-28T06:19:16.856Z,99.99
2023-02-28T06:20:16.814Z,99.99
2023-02-28T06:21:16.793Z,99.99
2023-02-28T06:22:16.748Z,99.99
2023-02-28T06:23:16.689Z,99.99
2023-02-28T06:24:16.690Z,99.99
2023-02-28T06:25:16.612Z,99.99
2023-02-28T06:26:16.600Z,99.99
2023-02-28T06:27:16.553Z,99.99
2023-02-28T06:28:16.496Z,99.99
2023-02-28T06:29:16.448Z,99.99
2023-02-28T06:30:16.446Z,99.99
2023-02-28T06:31:16.585Z,99.99
2023-02-28T06:32:16.584Z,99.99
2023-02-28T06:33:16.357Z,99.99
2023-02-28T06:34:16.306Z,99.99
2023-02-28T06:35:16.212Z,99.99
2023-02-28T06:36:16.190Z,99.99
2023-02-28T06:37:16.140Z,99.99
2023-02-28T06:38:16.113Z,99.99
2023-02-28T06:39:16.063Z,99.99
2023-02-28T06:40:16.051Z,99.99
2023-02-28T06:41:15.989Z,99.99
2023-02-28T06:42:16.017Z,99.99
2023-02-28T06:43:15.899Z,99.99
2023-02-28T06:44:15.863Z,99.99
2023-02-28T06:45:15.826Z,99.99
2023-02-28T06:46:15.917Z,99.99
2023-02-28T06:47:15.748Z,99.99
2023-02-28T06:48:15.699Z,99.99
2023-02-28T06:49:15.675Z,99.99
2023-02-28T06:50:15.637Z,99.99
2023-02-28T06:51:15.580Z,99.99
2023-02-28T06:52:15.548Z,99.99
2023-02-28T06:53:15.497Z,99.99
2023-02-28T06:54:15.480Z,99.99
2023-02-28T06:55:15.434Z,99.99
2023-02-28T06:56:15.391Z,99.99
2023-02-28T06:57:15.347Z,99.99
2023-02-28T06:58:15.332Z,99.99
2023-02-28T06:59:15.267Z,99.99
2023-02-28T07:00:15.243Z,99.99
2023-02-28T07:01:15.246Z,99.99
2023-02-28T07:02:15.174Z,99.99
2023-02-28T07:03:15.133Z,99.99
2023-02-28T07:04:15.132Z,99.99
2023-02-28T07:05:15.030Z,99.99
2023-02-28T07:06:14.997Z,99.99
2023-02-28T07:07:14.939Z,99.99
2023-02-28T07:08:14.908Z,99.99
2023-02-28T07:09:14.946Z,99.99
2023-02-28T07:10:14.817Z,99.99
2023-02-28T07:11:14.796Z,99.99
2023-02-28T07:12:14.744Z,99.99
2023-02-28T07:13:14.704Z,99.99
2023-02-28T07:14:14.697Z,99.99
2023-02-28T07:15:14.625Z,99.99
2023-02-28T07:16:14.695Z,99.99
2023-02-28T07:17:14.552Z,99.99
2023-02-28T07:18:14.534Z,99.99
2023-02-28T07:19:14.473Z,99.99
2023-02-28T07:20:14.430Z,99.99
2023-02-28T07:21:14.407Z,99.99
2023-02-28T07:22:16.158Z,99.99
2023-02-28T07:23:14.309Z,99.99
2023-02-28T07:24:14.283Z,99.99
2023-02-28T07:25:14.231Z,99.99
2023-02-28T07:26:14.196Z,99.99
2023-02-28T07:27:14.161Z,99.99
2023-02-28T07:28:14.114Z,99.99
2023-02-28T07:29:13.837Z,99.99
2023-02-28T07:30:14.143Z,99.99
2023-02-28T07:31:14.058Z,99.99
2023-02-28T07:32:14.138Z,99.99
2023-02-28T07:33:13.916Z,99.99
2023-02-28T07:34:13.896Z,99.99
2023-02-28T07:35:13.848Z,99.99
2023-02-28T07:36:13.804Z,99.99
2023-02-28T07:37:13.804Z,99.99
2023-02-28T07:38:13.730Z,99.99
2023-02-28T07:39:13.687Z,99.99
2023-02-28T07:40:13.678Z,99.99
2023-02-28T07:41:13.613Z,99.99
2023-02-28T07:42:13.571Z,99.99
2023-02-28T07:43:13.537Z,99.99
2023-02-28T07:44:13.491Z,99.99
2023-02-28T07:45:13.458Z,99.99
2023-02-28T07:46:13.505Z,99.99
2023-02-28T07:47:13.384Z,99.99
2023-02-28T07:48:13.584Z,99.99
2023-02-28T07:49:13.338Z,99.99
2023-02-28T07:50:13.295Z,99.99
2023-02-28T07:51:13.340Z,99.99
2023-02-28T07:52:14.700Z,99.99
2023-02-28T07:53:12.929Z,99.99
2023-02-28T07:54:13.126Z,99.99
2023-02-28T07:55:13.102Z,99.84
2023-02-28T07:56:13.048Z,99.37
2023-02-28T07:57:13.000Z,99.75
2023-02-28T07:58:12.982Z,99.08
2023-02-28T07:59:13.235Z,99.18
2023-02-28T08:00:12.901Z,98.61
2023-02-28T08:01:12.615Z,98.71
2023-02-28T08:02:12.884Z,98.61
2023-02-28T08:03:12.777Z,98.14
2023-02-28T08:04:12.739Z,97.96
2023-02-28T08:05:12.744Z,98.24
2023-02-28T08:06:12.689Z,98.33
2023-02-28T08:07:12.626Z,98.14
2023-02-28T08:08:12.588Z,98.52
2023-02-28T08:09:12.540Z,98.24
2023-02-28T08:10:12.837Z,97.96
2023-02-28T08:11:12.479Z,97.77
2023-02-28T08:12:12.443Z,97.86
2023-02-28T08:13:12.414Z,97.58
2023-02-28T08:14:12.363Z,97.39
2023-02-28T08:15:12.075Z,97.67
2023-02-28T08:16:12.397Z,97.2
2023-02-28T08:17:12.244Z,97.48
2023-02-28T08:18:12.235Z,97.29
2023-02-28T08:19:12.166Z,97.58
2023-02-28T08:20:11.884Z,96.82
2023-02-28T08:21:12.228Z,97.1
2023-02-28T08:22:12.081Z,96.78
2023-02-28T08:23:12.007Z,96.78
2023-02-28T08:24:11.730Z,96.4
2023-02-28T08:25:11.952Z,96.11
2023-02-28T08:26:11.900Z,95.73
2023-02-28T08:27:11.857Z,95.73
2023-02-28T08:28:11.844Z,95.45
2023-02-28T08:29:11.797Z,95.45
2023-02-28T08:30:11.749Z,95.07
2023-02-28T08:31:11.587Z,94.79
2023-02-28T08:32:30.605Z,94.79
2023-02-28T08:33:11.739Z,94.6
2023-02-28T08:34:11.619Z,94.79
2023-02-28T08:35:11.578Z,94.32
2023-02-28T08:36:11.633Z,94.22
2023-02-28T08:37:11.483Z,94.13
2023-02-28T08:38:11.467Z,93.84
2023-02-28T08:39:11.407Z,93.66
2023-02-28T08:40:11.398Z,93.09
2023-02-28T08:41:11.340Z,92.9
2023-02-28T08:42:11.291Z,92.43
2023-02-28T08:43:11.256Z,92.33
2023-02-28T08:44:11.220Z,91.96
2023-02-28T08:45:11.176Z,91.53
2023-02-28T08:46:11.409Z,91.53
2023-02-28T08:47:10.877Z,91.53
2023-02-28T08:48:11.062Z,91.43
2023-02-28T08:49:11.021Z,91.24
2023-02-28T08:50:11.025Z,90.49
2023-02-28T08:51:11.372Z,90.01
2023-02-28T08:52:10.915Z,89.64
2023-02-28T08:53:10.880Z,89.26
2023-02-28T08:54:10.927Z,89.26
2023-02-28T08:55:10.894Z,88.41
2023-02-28T08:56:10.770Z,88.31
2023-02-28T08:57:10.736Z,87.65
2023-02-28T08:58:10.694Z,87.18
2023-02-28T08:59:10.649Z,87.18
2023-02-28T09:00:10.611Z,87.18
2023-02-28T09:01:10.750Z,86.23
2023-02-28T09:02:10.532Z,85.57
2023-02-28T09:03:10.501Z,85.19
2023-02-28T09:04:10.475Z,84.91
2023-02-28T09:05:10.430Z,84.72
2023-02-28T09:06:10.407Z,84.25
2023-02-28T09:07:10.354Z,83.59
2023-02-28T09:08:10.319Z,82.92
2023-02-28T09:09:10.295Z,82.17
2023-02-28T09:10:10.290Z,81.88
2023-02-28T09:11:10.221Z,81.98
2023-02-28T09:12:10.183Z,81.6
2023-02-28T09:13:10.139Z,81.6
2023-02-28T09:14:10.098Z,81.17
2023-02-28T09:15:10.068Z,80.22
2023-02-28T09:16:10.024Z,80.6
2023-02-28T09:17:10.007Z,80.13
2023-02-28T09:18:09.699Z,79.28
2023-02-28T09:19:09.901Z,79.47
2023-02-28T09:20:09.898Z,79.18
2023-02-28T09:21:09.836Z,78.14
2023-02-28T09:22:09.836Z,77.76
2023-02-28T09:23:09.762Z,77.67
2023-02-28T09:24:09.730Z,77.48
2023-02-28T09:25:09.697Z,77.29
2023-02-28T09:26:09.703Z,76.91
2023-02-28T09:27:10.629Z,76.63
2023-02-28T09:28:09.579Z,76.53
2023-02-28T09:29:09.590Z,76.25
2023-02-28T09:30:09.522Z,75.87
2023-02-28T09:31:09.556Z,75.87
2023-02-28T09:32:09.610Z,75.4
2023-02-28T09:33:09.420Z,74.64
2023-02-28T09:34:09.454Z,74.26
2023-02-28T09:35:09.337Z,74.36
2023-02-28T09:36:09.353Z,73.88
2023-02-28T09:37:09.273Z,73.98
2023-02-28T09:38:09.233Z,74.07
2023-02-28T09:39:09.186Z,73.32
2023-02-28T09:40:09.150Z,73.41
2023-02-28T09:41:09.104Z,72.94
2023-02-28T09:42:09.088Z,73.03
2023-02-28T09:43:09.047Z,72.94
2023-02-28T09:44:08.998Z,73.03
2023-02-28T09:45:08.948Z,72.75
2023-02-28T09:46:09.094Z,72.47
2023-02-28T09:47:08.893Z,72.31
2023-02-28T09:48:08.869Z,72.5
2023-02-28T09:49:08.822Z,72.12
2023-02-28T09:50:08.771Z,71.65
2023-02-28T09:51:08.748Z,71.74
2023-02-28T09:52:08.468Z,71.55
2023-02-28T09:53:08.663Z,71.36
2023-02-28T09:54:08.430Z,71.08
2023-02-28T09:55:10.069Z,70.89
2023-02-28T09:56:08.557Z,70.7
2023-02-28T09:57:08.840Z,70.7
2023-02-28T09:58:08.519Z,70.7
2023-02-28T09:59:08.459Z,70.42
2023-02-28T10:00:08.419Z,70.61
2023-02-28T10:01:08.749Z,70.32
2023-02-28T10:02:08.346Z,69.76
2023-02-28T10:03:08.320Z,69.76
2023-02-28T10:04:08.272Z,69.76
2023-02-28T10:05:08.157Z,69.76
2023-02-28T10:06:08.209Z,69.19
2023-02-28T10:07:08.172Z,69.28
2023-02-28T10:08:08.132Z,68.9
2023-02-28T10:09:08.092Z,69.09
2023-02-28T10:10:08.101Z,68.9
2023-02-28T10:11:08.040Z,69.19
2023-02-28T10:12:08.010Z,68.84
2023-02-28T10:13:07.749Z,69.51
2023-02-28T10:14:07.960Z,69.13
2023-02-28T10:15:07.876Z,68.75
2023-02-28T10:16:07.959Z,68.46
2023-02-28T10:17:07.802Z,68.46
2023-02-28T10:18:12.826Z,68.18
2023-02-28T10:19:07.743Z,67.43
2023-02-28T10:20:07.773Z,66.76
2023-02-28T10:21:07.663Z,66.47
2023-02-28T10:22:07.744Z,66
2023-02-28T10:23:07.348Z,65.53
2023-02-28T10:24:07.313Z,65.06
2023-02-28T10:25:09.333Z,64.87
2023-02-28T10:26:07.490Z,64.77
2023-02-28T10:27:07.457Z,64.77
2023-02-28T10:28:07.415Z,64.49
2023-02-28T10:29:07.386Z,64.77
2023-02-28T10:30:07.376Z,64.68
2023-02-28T10:31:07.215Z,64.3
2023-02-28T10:32:07.450Z,64.23
2023-02-28T10:33:07.091Z,63.76
2023-02-28T10:34:07.211Z,63.2
2023-02-28T10:35:07.172Z,62.15
2023-02-28T10:36:07.213Z,61.49
2023-02-28T10:37:07.103Z,61.49
2023-02-28T10:38:07.069Z,61.02
2023-02-28T10:39:07.032Z,60.16
2023-02-28T10:40:07.035Z,60.25
2023-02-28T10:41:07.023Z,60.54
2023-02-28T10:42:06.946Z,59.88
2023-02-28T10:43:06.924Z,59.5
2023-02-28T10:44:06.852Z,59.41
2023-02-28T10:45:06.822Z,59.31
2023-02-28T10:46:06.928Z,59.69
2023-02-28T10:47:06.753Z,59.88
2023-02-28T10:48:06.732Z,59.41
2023-02-28T10:49:06.451Z,59.31
2023-02-28T10:50:06.659Z,58.65
2023-02-28T10:51:06.379Z,58.55
2023-02-28T10:52:06.578Z,58.84
2023-02-28T10:53:08.203Z,58.65
2023-02-28T10:54:06.504Z,58.55
2023-02-28T10:55:06.546Z,58.65
2023-02-28T10:56:06.442Z,58.55
2023-02-28T10:57:06.191Z,58.65
2023-02-28T10:58:06.372Z,58.84
2023-02-28T10:59:06.349Z,58.65
2023-02-28T11:00:06.314Z,57.98
2023-02-28T11:01:06.266Z,57.42
2023-02-28T11:02:08.396Z,57.23
2023-02-28T11:03:06.203Z,57.42
2023-02-28T11:04:06.171Z,57.51
2023-02-28T11:05:06.320Z,57.51
2023-02-28T11:06:06.089Z,57.23
2023-02-28T11:07:06.061Z,57.51
2023-02-28T11:08:06.017Z,57.42
2023-02-28T11:09:05.740Z,56.94
2023-02-28T11:10:05.952Z,56.94
2023-02-28T11:11:05.914Z,57.04
2023-02-28T11:12:05.653Z,56.87
2023-02-28T11:13:05.627Z,56.87
2023-02-28T11:14:05.803Z,56.97
2023-02-28T11:15:05.772Z,56.97
2023-02-28T11:16:05.886Z,57.06
2023-02-28T11:17:05.712Z,56.59
2023-02-28T11:18:05.729Z,55.74
2023-02-28T11:19:05.633Z,56.68
2023-02-28T11:20:05.621Z,56.4
2023-02-28T11:21:05.572Z,56.21
2023-02-28T11:22:05.531Z,55.83
2023-02-28T11:23:05.537Z,55.64
2023-02-28T11:24:05.459Z,56.78
2023-02-28T11:25:05.446Z,56.49
2023-02-28T11:26:05.407Z,56.68
2023-02-28T11:27:05.363Z,56.02
2023-02-28T11:28:05.340Z,55.36
2023-02-28T11:29:05.319Z,54.98
2023-02-28T11:30:05.346Z,55.17
2023-02-28T11:31:05.346Z,55.17
2023-02-28T11:32:05.265Z,55.64
2023-02-28T11:33:05.280Z,55.26
2023-02-28T11:34:05.337Z,55.26
2023-02-28T11:35:05.096Z,55.64
2023-02-28T11:36:05.094Z,54.88
2023-02-28T11:37:05.015Z,54.88
2023-02-28T11:38:04.993Z,54.32
2023-02-28T11:39:05.034Z,54.5
2023-02-28T11:40:04.930Z,54.5
2023-02-28T11:41:04.875Z,54.6
2023-02-28T11:42:05.018Z,54.98
2023-02-28T11:43:04.821Z,54.69
2023-02-28T11:44:04.805Z,55.17
2023-02-28T11:45:04.816Z,54.22
2023-02-28T11:46:04.706Z,54.88
2023-02-28T11:47:04.671Z,54.79
2023-02-28T11:48:04.662Z,54.5
2023-02-28T11:49:04.603Z,55.64
2023-02-28T11:50:04.604Z,55.26
2023-02-28T11:51:04.524Z,55.26
2023-02-28T11:52:04.259Z,55.45
2023-02-28T11:53:04.601Z,54.69
2023-02-28T11:54:04.432Z,54.88
2023-02-28T11:55:04.398Z,54.98
2023-02-28T11:56:04.374Z,54.88
2023-02-28T11:57:04.340Z,54.63
2023-02-28T11:58:04.309Z,54.72
2023-02-28T11:59:04.258Z,55
2023-02-28T12:00:04.253Z,55
2023-02-28T12:01:04.212Z,53.87
2023-02-28T12:02:04.273Z,54.15
2023-02-28T12:03:04.211Z,53.68
2023-02-28T12:04:04.091Z,53.96
2023-02-28T12:05:05.941Z,53.96
2023-02-28T12:06:04.054Z,53.77
2023-02-28T12:07:04.015Z,53.2
2023-02-28T12:08:03.968Z,53.96
2023-02-28T12:09:03.945Z,54.15
2023-02-28T12:10:03.897Z,53.39
2023-02-28T12:11:03.870Z,53.39
2023-02-28T12:12:03.915Z,52.73
2023-02-28T12:13:03.792Z,52.64
2023-02-28T12:14:03.783Z,52.64
2023-02-28T12:15:03.725Z,52.73
2023-02-28T12:16:03.827Z,52.56
2023-02-28T12:17:03.715Z,52.37
2023-02-28T12:18:03.633Z,52.09
2023-02-28T12:19:03.614Z,52.09
2023-02-28T12:20:03.562Z,52.06
2023-02-28T12:21:03.544Z,52.45
2023-02-28T12:22:03.518Z,52.28
2023-02-28T12:23:03.247Z,51.97
2023-02-28T12:24:03.424Z,52.09
2023-02-28T12:25:03.402Z,52.45
2023-02-28T12:26:03.370Z,52.26
2023-02-28T12:27:03.344Z,52.73
2023-02-28T12:28:03.294Z,53.3
2023-02-28T12:29:03.025Z,53.68
2023-02-28T12:30:03.232Z,54.06
2023-02-28T12:31:03.195Z,54.34
2023-02-28T12:32:03.411Z,54.25
2023-02-28T12:33:03.163Z,54.53
2023-02-28T12:34:03.115Z,54.44
2023-02-28T12:35:03.067Z,54.34
2023-02-28T12:36:03.059Z,54.25
2023-02-28T12:37:03.077Z,53.87
2023-02-28T12:38:02.988Z,53.77
2023-02-28T12:39:02.927Z,53.8
2023-02-28T12:40:02.986Z,53.23
2023-02-28T12:41:03.017Z,52.85
2023-02-28T12:42:02.839Z,52.66
2023-02-28T12:43:02.802Z,52.19
2023-02-28T12:44:02.764Z,52.09
2023-02-28T12:45:02.759Z,52.19
2023-02-28T12:46:02.917Z,52.47
2023-02-28T12:47:02.674Z,52.19
2023-02-28T12:48:02.645Z,52.19
2023-02-28T12:49:02.663Z,52.37
2023-02-28T12:50:02.561Z,52.19
2023-02-28T12:51:04.133Z,52.09
2023-02-28T12:52:02.520Z,51.62
2023-02-28T12:53:02.538Z,51.72
2023-02-28T12:54:02.461Z,51.43